Terminal Aerodrome Forecast
Issued by NWS

Home | Current Version | Previous Version | Text Only | Print | Product List | Glossary On
Versions: 1 2 3 4 5 6 7 8 9 10 11 12 13 14 15 16 17 18 19 20
000
FTUS43 KAPX 230426 AAA
TAFMBL
TAF AMD
KMBL 230426Z 2304/2324 10012G19KT 5SM -RA BR SCT018 OVC045
      TEMPO 2304/2308 3SM -RA BR BKN012 OVC035
     FM231800 14006KT 4SM -RA BR OVC007
      AMD LTD TO CLD VIS AND WIND=

USA.gov is the U.S. government's official web portal to all federal, state and local government web resources and services.